• Join FlightAware (Why Join?)
  • Login
  • US Flag 
03:52PM EDT


 

Airport Tracker/Info


-or-


 

Live Flight TrackerFlight Track Log ✈ KAP169 ✈ 11-May-2013 ✈ KRKD - KBOS

Flight Track Log - Related Links

Times and Time Zones

All times are in EDT time to prevent confusion due to time zone crossing. See the KAP169 flight status page for this flight to view local times or setup timezone preferences in your user account.

Time Position Orientation Groundspeed Altitude Reporting Facility
EDT Latitude Longitude Course Direction KTS MPH feet Rate Location/Type
03:56PM 43.9590 -69.3198 227° Southwest  Level FlightAware Approximate
03:57PM 43.9437 -69.3584 251° West  Level FlightAware Approximate
03:58PM 43.9329 -69.4007 227° Southwest  Level FlightAware Approximate
03:59PM 43.9109 -69.4337 227° Southwest  Level FlightAware Approximate
04:00PM 43.8919 -69.4697 240° Southwest  Level FlightAware Approximate
04:01PM 43.8758 -69.5087 240° Southwest  Level FlightAware Approximate
04:02PM 43.8597 -69.5477 240° Southwest  Level FlightAware Approximate
04:03PM 43.8436 -69.5867 240° Southwest  Level FlightAware Approximate
04:04PM 43.8274 -69.6256 240° Southwest  Level FlightAware Approximate
04:05PM 43.8113 -69.6645 240° Southwest  Level FlightAware Approximate
04:06PM 43.7952 -69.7034 240° Southwest  Level FlightAware Approximate
04:07PM 43.7790 -69.7423 240° Southwest  Level FlightAware Approximate
04:08PM 43.7628 -69.7811 240° Southwest  Level FlightAware Approximate
04:09PM 43.7466 -69.8200 240° Southwest  Level FlightAware Approximate
04:10PM 43.7304 -69.8588 240° Southwest  Level FlightAware Approximate
04:11PM 43.7142 -69.8976 240° Southwest  Level FlightAware Approximate
04:12PM 43.6979 -69.9363 240° Southwest  Level FlightAware Approximate
04:13PM 43.6817 -69.9751 240° Southwest  Level FlightAware Approximate
04:14PM 43.6655 -70.0138 240° Southwest  Level FlightAware Approximate
04:15PM 43.6492 -70.0525 240° Southwest  Level FlightAware Approximate
04:16PM 43.6329 -70.0912 240° Southwest  Level FlightAware Approximate
04:17PM 43.6166 -70.1298 240° Southwest  Level FlightAware Approximate
04:18PM 43.6003 -70.1685 240° Southwest  Level FlightAware Approximate
04:19PM 43.5840 -70.2071 240° Southwest  Level FlightAware Approximate
04:19PM 43.3500 -70.1333 240° Southwest 133 153 6,000  Level KA90
04:20PM 43.5676 -70.2457 240° Southwest  Level FlightAware Approximate
04:20PM 43.3167 -70.1667 216° Southwest 133 153 6,000  Level KA90
04:21PM 43.5513 -70.2843 240° Southwest  Level FlightAware Approximate
04:21PM 43.3000 -70.2167 245° Southwest 133 153 6,000  Level KA90
04:22PM 43.5349 -70.3228 240° Southwest  Level FlightAware Approximate
04:22PM 43.2833 -70.2500 236° Southwest 132 152 6,000  Level KA90
04:23PM 43.5186 -70.3614 240° Southwest  Level FlightAware Approximate
04:23PM 43.2500 -70.2833 216° Southwest 131 151 6,000  Level KA90
04:24PM 43.5022 -70.3999 240° Southwest  Level FlightAware Approximate
04:24PM 43.2333 -70.3333 245° Southwest 132 152 6,000  Level KA90
04:25PM 43.4858 -70.4384 240° Southwest  Level FlightAware Approximate
04:25PM 43.2000 -70.3667 216° Southwest 132 152 6,000  Level KA90
04:26PM 43.1833 -70.4000 236° Southwest 133 153 6,000  Level KA90
04:27PM 43.1500 -70.4333 216° Southwest 134 154 6,000  Level KA90
04:28PM 43.1333 -70.4833 245° Southwest 133 153 6,000  Level KA90
04:29PM 43.1000 -70.5000 200° South 140 161 6,000  Level KA90
04:30PM 43.0500 -70.5167 194° South 137 158 6,000  Level KA90
04:31PM 43.0167 -70.5333 200° South 138 159 6,000  Level KA90
04:32PM 42.9833 -70.5667 216° Southwest 137 158 6,000  Level KA90
04:33PM 42.9500 -70.5833 200° South 137 158 6,000  Level KA90
04:34PM 42.9167 -70.6167 216° Southwest 137 158 6,000  Level KA90
04:35PM 42.8833 -70.6333 200° South 137 158 6,000 -60 Level KA90
04:36PM 42.8500 -70.6667 216° Southwest 135 155 5,900 -360 Descending KA90
04:37PM 42.8167 -70.6833 200° South 151 174 5,300 -600 Descending KA90
04:38PM 42.8000 -70.7333 246° West 149 171 4,800 -600 Descending KA90
04:39PM 42.7667 -70.7833 228° Southwest 148 170 4,200 -420 Descending KA90
04:40PM 42.7500 -70.8167 236° Southwest 141 162 4,000 -120 Descending KA90
04:41PM 42.7167 -70.8333 200° South 137 158 4,000  Level KA90
04:42PM 42.6833 -70.8500 200° South 131 151 4,000 -60 Level KA90
04:43PM 42.6500 -70.8667 200° South 130 150 3,900  Descending KA90
04:44PM 42.6167 -70.8833 200° South 131 151 4,000  Climbing KA90
04:45PM 42.5833 -70.9000 200° South 128 147 4,000 -180 Level KA90
04:46PM 42.5500 -70.9167 200° South 126 145 3,700 -660 Descending KA90
04:47PM 42.5000 -70.9333 194° South 137 158 2,700 -840 Descending KA90
04:48PM 42.4667 -70.9500 200° South 143 165 2,000 -840 Descending KA90
04:49PM 42.4333 -70.9667 200° South 144 166 1,100 -720 Descending KA90
04:50PM 42.4000 -70.9833 200° South 111 128 600 -480 Descending KA90
04:52PM 42.3630 -71.0064 172° South  Level Estimated
04:59PM 42.3630 -71.0064 172° South  Level Estimated